EGWU

RAF Northolt Airport

London, United Kingdom
METAR EGWU 112350Z AUTO 13005KT 6000 // FEW038/// BKN140/// 05/05 Q1022
Observed Flight Rules
Dec-11 @ 23:50 UTC (2 hours ago) Marginal Visual Flight Rules
Wind Visibility Clouds
130° at 5 knots 6,003 meters
  • Few at 3,800' AGL
  • Broken at 14,000' AGL
Temperatures Readings
Current 5°C / 41°F
Dewpoint 5°C / 41°F
Humidity 100%
Altimeter 30.18" Hg
Pressure 1022 hPa
Elevation 40
METAR EGWU 112350Z AUTO 13005KT 6000 // FEW038/// BKN140/// 05/05 Q1022
Observed Flight Rules
Dec-11 @ 23:50 UTC
(2 hours ago)
MVFR
Wind Visibility
130° at 5 knots 6,003 meters
Clouds
  • Few at 3,800' AGL
  • Broken at 14,000' AGL
Temperature Dewpoint
5°C / 41°F 5°C / 41°F
Humidity Altimeter Pressure
100% 30.18" Hg 1022 hPa